sensor_id;sensor_type;location;lat;lon;timestamp;pressure;altitude;pressure_sealevel;temperature;humidity
37972;BME280;23794;48.234;8.344;2023-08-08T00:02:20;94555.34;;;10.51;77.08
37972;BME280;23794;48.234;8.344;2023-08-08T00:04:48;94553.78;;;10.50;77.12
37972;BME280;23794;48.234;8.344;2023-08-08T00:07:16;94558.84;;;10.52;77.29
37972;BME280;23794;48.234;8.344;2023-08-08T00:09:42;94573.34;;;10.63;76.60
37972;BME280;23794;48.234;8.344;2023-08-08T00:12:09;94563.94;;;10.57;77.99
37972;BME280;23794;48.234;8.344;2023-08-08T00:14:36;94560.41;;;10.60;78.33
37972;BME280;23794;48.234;8.344;2023-08-08T00:17:02;94560.41;;;10.67;77.72
37972;BME280;23794;48.234;8.344;2023-08-08T00:19:29;94565.09;;;10.70;77.53
37972;BME280;23794;48.234;8.344;2023-08-08T00:21:56;94558.88;;;10.70;76.67
37972;BME280;23794;48.234;8.344;2023-08-08T00:24:23;94557.66;;;10.67;76.83
37972;BME280;23794;48.234;8.344;2023-08-08T00:26:49;94559.22;;;10.68;77.55
37972;BME280;23794;48.234;8.344;2023-08-08T00:29:16;94553.75;;;10.72;77.54
37972;BME280;23794;48.234;8.344;2023-08-08T00:31:43;94550.22;;;10.75;76.83
37972;BME280;23794;48.234;8.344;2023-08-08T00:34:09;94551.81;;;10.72;77.66
37972;BME280;23794;48.234;8.344;2023-08-08T00:36:36;94547.50;;;10.68;78.44
37972;BME280;23794;48.234;8.344;2023-08-08T00:39:03;94543.97;;;10.71;76.75
37972;BME280;23794;48.234;8.344;2023-08-08T00:41:29;94548.69;;;10.67;76.90
37972;BME280;23794;48.234;8.344;2023-08-08T00:43:56;94540.84;;;10.69;76.84
37972;BME280;23794;48.234;8.344;2023-08-08T00:46:22;94529.50;;;10.70;76.88
37972;BME280;23794;48.234;8.344;2023-08-08T00:48:54;94534.97;;;10.70;77.07
37972;BME280;23794;48.234;8.344;2023-08-08T00:51:21;94531.47;;;10.73;76.98
37972;BME280;23794;48.234;8.344;2023-08-08T00:53:49;94532.63;;;10.76;77.10
37972;BME280;23794;48.234;8.344;2023-08-08T00:56:17;94536.16;;;10.69;78.16
37972;BME280;23794;48.234;8.344;2023-08-08T00:58:44;94541.63;;;10.69;77.45
37972;BME280;23794;48.234;8.344;2023-08-08T01:01:17;94527.53;;;10.71;77.52
37972;BME280;23794;48.234;8.344;2023-08-08T01:03:44;94523.59;;;10.79;76.89
37972;BME280;23794;48.234;8.344;2023-08-08T01:09:57;94525.59;;;10.64;79.76
37972;BME280;23794;48.234;8.344;2023-08-08T01:12:30;94519.31;;;10.71;79.24
37972;BME280;23794;48.234;8.344;2023-08-08T01:14:57;94519.69;;;10.80;77.95
37972;BME280;23794;48.234;8.344;2023-08-08T01:17:25;94520.09;;;10.82;77.86
37972;BME280;23794;48.234;8.344;2023-08-08T01:19:52;94519.31;;;10.71;78.26
37972;BME280;23794;48.234;8.344;2023-08-08T01:25:25;94518.13;;;10.68;78.21
37972;BME280;23794;48.234;8.344;2023-08-08T01:27:52;94512.28;;;10.66;78.36
37972;BME280;23794;48.234;8.344;2023-08-08T01:30:18;94518.16;;;10.57;78.62
37972;BME280;23794;48.234;8.344;2023-08-08T01:32:45;94514.66;;;10.50;78.95
37972;BME280;23794;48.234;8.344;2023-08-08T01:35:12;94510.75;;;10.51;78.75
37972;BME280;23794;48.234;8.344;2023-08-08T01:37:43;94520.50;;;10.48;79.02
37972;BME280;23794;48.234;8.344;2023-08-08T01:40:13;94517.41;;;10.50;78.49
37972;BME280;23794;48.234;8.344;2023-08-08T01:42:45;94513.84;;;10.53;78.09
37972;BME280;23794;48.234;8.344;2023-08-08T01:45:13;94515.44;;;10.50;78.67
37972;BME280;23794;48.234;8.344;2023-08-08T01:47:40;94507.63;;;10.45;78.13
37972;BME280;23794;48.234;8.344;2023-08-08T01:50:08;94508.03;;;10.36;78.52
37972;BME280;23794;48.234;8.344;2023-08-08T01:52:35;94507.22;;;10.32;78.73
37972;BME280;23794;48.234;8.344;2023-08-08T01:55:02;94499.81;;;10.36;78.53
37972;BME280;23794;48.234;8.344;2023-08-08T01:57:29;94510.72;;;10.29;79.05
37972;BME280;23794;48.234;8.344;2023-08-08T01:59:57;94508.00;;;10.29;78.87
37972;BME280;23794;48.234;8.344;2023-08-08T02:02:24;94508.41;;;10.20;79.27
37972;BME280;23794;48.234;8.344;2023-08-08T02:04:53;94504.09;;;10.23;79.74
37972;BME280;23794;48.234;8.344;2023-08-08T02:07:19;94508.00;;;10.22;79.18
37972;BME280;23794;48.234;8.344;2023-08-08T02:09:46;94508.00;;;10.18;79.57
37972;BME280;23794;48.234;8.344;2023-08-08T02:12:12;94509.19;;;10.21;78.70
37972;BME280;23794;48.234;8.344;2023-08-08T02:14:39;94511.94;;;10.21;79.45
37972;BME280;23794;48.234;8.344;2023-08-08T02:17:06;94512.72;;;10.21;79.57
37972;BME280;23794;48.234;8.344;2023-08-08T02:19:32;94516.59;;;10.31;78.87
37972;BME280;23794;48.234;8.344;2023-08-08T02:21:59;94509.19;;;10.24;78.83
37972;BME280;23794;48.234;8.344;2023-08-08T02:24:26;94500.19;;;10.20;79.24
37972;BME280;23794;48.234;8.344;2023-08-08T02:26:53;94500.97;;;10.28;78.46
37972;BME280;23794;48.234;8.344;2023-08-08T02:29:19;94505.66;;;10.13;78.83
37972;BME280;23794;48.234;8.344;2023-08-08T02:31:46;94504.09;;;10.08;79.09
37972;BME280;23794;48.234;8.344;2023-08-08T02:34:12;94504.09;;;10.12;78.92
37972;BME280;23794;48.234;8.344;2023-08-08T02:36:39;94502.91;;;10.06;79.09
37972;BME280;23794;48.234;8.344;2023-08-08T02:39:06;94502.16;;;9.98;79.72
37972;BME280;23794;48.234;8.344;2023-08-08T02:41:33;94502.16;;;9.98;79.98
37972;BME280;23794;48.234;8.344;2023-08-08T02:44:00;94504.50;;;10.00;79.05
37972;BME280;23794;48.234;8.344;2023-08-08T02:46:27;94503.31;;;9.93;79.50
37972;BME280;23794;48.234;8.344;2023-08-08T02:48:54;94499.00;;;10.03;78.62
37972;BME280;23794;48.234;8.344;2023-08-08T02:51:20;94503.31;;;10.01;79.08
37972;BME280;23794;48.234;8.344;2023-08-08T02:53:47;94488.47;;;9.94;79.70
37972;BME280;23794;48.234;8.344;2023-08-08T02:56:13;94491.56;;;9.93;80.18
37972;BME280;23794;48.234;8.344;2023-08-08T02:58:41;94497.84;;;9.86;79.76
37972;BME280;23794;48.234;8.344;2023-08-08T03:01:08;94489.22;;;9.88;79.04
37972;BME280;23794;48.234;8.344;2023-08-08T03:03:36;94487.25;;;9.77;79.54
37972;BME280;23794;48.234;8.344;2023-08-08T03:06:03;94485.31;;;9.78;78.90
37972;BME280;23794;48.234;8.344;2023-08-08T03:08:30;94490.38;;;9.72;79.37
37972;BME280;23794;48.234;8.344;2023-08-08T03:10:58;94491.94;;;9.62;79.44
37972;BME280;23794;48.234;8.344;2023-08-08T03:13:25;94486.81;;;9.54;79.74
37972;BME280;23794;48.234;8.344;2023-08-08T03:15:53;94488.03;;;9.60;79.64
37972;BME280;23794;48.234;8.344;2023-08-08T03:18:20;94492.69;;;9.59;78.47
37972;BME280;23794;48.234;8.344;2023-08-08T03:20:49;94486.44;;;9.48;80.03
37972;BME280;23794;48.234;8.344;2023-08-08T03:23:17;94486.03;;;9.46;79.94
37972;BME280;23794;48.234;8.344;2023-08-08T03:25:45;94481.75;;;9.56;79.31
37972;BME280;23794;48.234;8.344;2023-08-08T03:28:13;94492.25;;;9.46;79.74
37972;BME280;23794;48.234;8.344;2023-08-08T03:30:40;94493.47;;;9.53;80.02
37972;BME280;23794;48.234;8.344;2023-08-08T03:33:08;94501.66;;;9.49;79.56
37972;BME280;23794;48.234;8.344;2023-08-08T03:35:35;94489.94;;;9.52;79.71
37972;BME280;23794;48.234;8.344;2023-08-08T03:38:01;94495.41;;;9.49;79.89
37972;BME280;23794;48.234;8.344;2023-08-08T03:40:30;94488.38;;;9.55;79.62
37972;BME280;23794;48.234;8.344;2023-08-08T03:42:56;94486.44;;;9.44;79.38
37972;BME280;23794;48.234;8.344;2023-08-08T03:45:23;94488.00;;;9.49;78.99
37972;BME280;23794;48.234;8.344;2023-08-08T03:47:50;94489.94;;;9.49;78.92
37972;BME280;23794;48.234;8.344;2023-08-08T03:50:17;94491.50;;;9.46;79.70
37972;BME280;23794;48.234;8.344;2023-08-08T03:52:44;94498.13;;;9.41;79.19
37972;BME280;23794;48.234;8.344;2023-08-08T03:55:11;94490.72;;;9.38;79.90
37972;BME280;23794;48.234;8.344;2023-08-08T03:57:39;94483.25;;;9.35;79.36
37972;BME280;23794;48.234;8.344;2023-08-08T04:00:06;94489.44;;;9.25;79.59
37972;BME280;23794;48.234;8.344;2023-08-08T04:02:43;94496.84;;;9.21;80.39
37972;BME280;23794;48.234;8.344;2023-08-08T04:05:10;94496.06;;;9.20;79.95
37972;BME280;23794;48.234;8.344;2023-08-08T04:07:36;94503.47;;;9.16;79.57
37972;BME280;23794;48.234;8.344;2023-08-08T04:10:03;94501.50;;;9.13;79.76
37972;BME280;23794;48.234;8.344;2023-08-08T04:12:30;94497.97;;;9.09;80.49
37972;BME280;23794;48.234;8.344;2023-08-08T04:14:56;94498.75;;;9.13;79.81
37972;BME280;23794;48.234;8.344;2023-08-08T04:17:23;94496.78;;;9.03;80.28
37972;BME280;23794;48.234;8.344;2023-08-08T04:19:50;94512.78;;;9.04;80.66
37972;BME280;23794;48.234;8.344;2023-08-08T04:22:17;94509.28;;;9.04;80.42
37972;BME280;23794;48.234;8.344;2023-08-08T04:24:44;94510.47;;;9.06;79.83
37972;BME280;23794;48.234;8.344;2023-08-08T04:27:10;94509.31;;;9.07;80.47
37972;BME280;23794;48.234;8.344;2023-08-08T04:29:37;94505.44;;;9.12;79.62
37972;BME280;23794;48.234;8.344;2023-08-08T04:32:04;94511.25;;;9.10;80.00
37972;BME280;23794;48.234;8.344;2023-08-08T04:34:31;94508.56;;;9.18;79.14
37972;BME280;23794;48.234;8.344;2023-08-08T04:36:57;94513.97;;;9.07;80.44
37972;BME280;23794;48.234;8.344;2023-08-08T04:39:24;94513.19;;;9.06;80.07
37972;BME280;23794;48.234;8.344;2023-08-08T04:41:51;94518.25;;;9.04;80.02
37972;BME280;23794;48.234;8.344;2023-08-08T04:44:17;94514.38;;;9.09;79.75
37972;BME280;23794;48.234;8.344;2023-08-08T04:46:44;94503.44;;;9.09;80.29
37972;BME280;23794;48.234;8.344;2023-08-08T04:49:11;94512.41;;;9.09;80.19
37972;BME280;23794;48.234;8.344;2023-08-08T04:51:37;94508.53;;;9.14;80.41
37972;BME280;23794;48.234;8.344;2023-08-08T04:54:06;94501.91;;;9.11;80.09
37972;BME280;23794;48.234;8.344;2023-08-08T04:56:33;94505.03;;;9.17;79.98
37972;BME280;23794;48.234;8.344;2023-08-08T04:58:59;94501.91;;;9.15;80.48
37972;BME280;23794;48.234;8.344;2023-08-08T05:01:26;94505.38;;;9.05;81.07
37972;BME280;23794;48.234;8.344;2023-08-08T05:03:53;94505.00;;;9.06;80.71
37972;BME280;23794;48.234;8.344;2023-08-08T05:06:24;94498.75;;;9.13;80.40
37972;BME280;23794;48.234;8.344;2023-08-08T05:08:52;94507.00;;;9.20;80.21
37972;BME280;23794;48.234;8.344;2023-08-08T05:11:18;94500.00;;;9.26;80.45
37972;BME280;23794;48.234;8.344;2023-08-08T05:13:45;94498.91;;;9.38;79.76
37972;BME280;23794;48.234;8.344;2023-08-08T05:16:12;94499.25;;;9.33;80.42
37972;BME280;23794;48.234;8.344;2023-08-08T05:18:38;94497.72;;;9.39;81.04
37972;BME280;23794;48.234;8.344;2023-08-08T05:21:05;94498.94;;;9.49;80.57
37972;BME280;23794;48.234;8.344;2023-08-08T05:23:32;94505.22;;;9.75;79.63
37972;BME280;23794;48.234;8.344;2023-08-08T05:25:58;94496.66;;;9.84;80.02
37972;BME280;23794;48.234;8.344;2023-08-08T05:28:25;94502.91;;;10.02;79.25
37972;BME280;23794;48.234;8.344;2023-08-08T05:30:52;94496.69;;;10.23;79.17
37972;BME280;23794;48.234;8.344;2023-08-08T05:33:19;94503.31;;;10.44;79.16
37972;BME280;23794;48.234;8.344;2023-08-08T05:35:46;94489.19;;;10.60;78.85
37972;BME280;23794;48.234;8.344;2023-08-08T05:38:13;94496.22;;;10.72;78.51
37972;BME280;23794;48.234;8.344;2023-08-08T05:40:39;94497.00;;;10.83;77.82
37972;BME280;23794;48.234;8.344;2023-08-08T05:43:06;94498.13;;;10.89;77.74
37972;BME280;23794;48.234;8.344;2023-08-08T05:45:32;94501.28;;;11.02;78.28
37972;BME280;23794;48.234;8.344;2023-08-08T05:47:59;94505.09;;;11.27;77.51
37972;BME280;23794;48.234;8.344;2023-08-08T05:50:29;94498.31;;;11.49;77.31
37972;BME280;23794;48.234;8.344;2023-08-08T05:52:57;94497.03;;;11.68;77.55
37972;BME280;23794;48.234;8.344;2023-08-08T05:55:24;94496.16;;;11.90;76.96
37972;BME280;23794;48.234;8.344;2023-08-08T05:57:51;94497.66;;;11.98;75.60
37972;BME280;23794;48.234;8.344;2023-08-08T06:00:17;94491.75;;;11.99;74.29
37972;BME280;23794;48.234;8.344;2023-08-08T06:02:44;94487.03;;;12.00;74.73
37972;BME280;23794;48.234;8.344;2023-08-08T06:05:11;94488.19;;;12.06;74.08
37972;BME280;23794;48.234;8.344;2023-08-08T06:07:39;94485.03;;;12.08;75.19
37972;BME280;23794;48.234;8.344;2023-08-08T06:10:06;94492.78;;;12.20;75.20
37972;BME280;23794;48.234;8.344;2023-08-08T06:12:34;94486.78;;;12.36;75.54
37972;BME280;23794;48.234;8.344;2023-08-08T06:15:01;94494.16;;;12.46;75.18
37972;BME280;23794;48.234;8.344;2023-08-08T06:17:30;94494.03;;;12.61;74.63
37972;BME280;23794;48.234;8.344;2023-08-08T06:19:57;94487.13;;;12.84;74.32
37972;BME280;23794;48.234;8.344;2023-08-08T06:22:23;94490.56;;;12.95;74.11
37972;BME280;23794;48.234;8.344;2023-08-08T06:24:50;94483.63;;;13.18;72.95
37972;BME280;23794;48.234;8.344;2023-08-08T06:27:17;94482.97;;;13.37;72.11
37972;BME280;23794;48.234;8.344;2023-08-08T06:29:43;94491.31;;;13.61;70.37
37972;BME280;23794;48.234;8.344;2023-08-08T06:32:10;94475.78;;;13.78;69.37
37972;BME280;23794;48.234;8.344;2023-08-08T06:34:37;94475.63;;;13.89;68.75
37972;BME280;23794;48.234;8.344;2023-08-08T06:37:03;94479.72;;;14.04;65.70
37972;BME280;23794;48.234;8.344;2023-08-08T06:39:30;94488.63;;;14.16;65.65
37972;BME280;23794;48.234;8.344;2023-08-08T06:41:57;94490.94;;;14.17;67.39
37972;BME280;23794;48.234;8.344;2023-08-08T06:44:41;94490.66;;;14.35;67.08
37972;BME280;23794;48.234;8.344;2023-08-08T06:47:09;94496.28;;;14.52;67.14
37972;BME280;23794;48.234;8.344;2023-08-08T06:49:38;94489.53;;;14.57;65.72
37972;BME280;23794;48.234;8.344;2023-08-08T06:52:05;94490.22;;;14.61;64.57
37972;BME280;23794;48.234;8.344;2023-08-08T06:54:32;94492.53;;;14.66;63.81
37972;BME280;23794;48.234;8.344;2023-08-08T06:57:00;94487.53;;;14.81;64.91
37972;BME280;23794;48.234;8.344;2023-08-08T06:59:29;94485.25;;;14.99;63.56
37972;BME280;23794;48.234;8.344;2023-08-08T07:01:56;94483.13;;;15.27;63.76
37972;BME280;23794;48.234;8.344;2023-08-08T07:04:23;94479.19;;;15.28;60.51
37972;BME280;23794;48.234;8.344;2023-08-08T07:06:50;94468.50;;;15.30;58.60
37972;BME280;23794;48.234;8.344;2023-08-08T07:09:17;94465.53;;;15.21;60.25
37972;BME280;23794;48.234;8.344;2023-08-08T07:11:45;94475.38;;;15.22;60.87
37972;BME280;23794;48.234;8.344;2023-08-08T07:14:11;94477.03;;;15.36;61.00
37972;BME280;23794;48.234;8.344;2023-08-08T07:16:38;94475.06;;;15.57;60.33
37972;BME280;23794;48.234;8.344;2023-08-08T07:19:05;94466.03;;;15.73;56.80
37972;BME280;23794;48.234;8.344;2023-08-08T07:21:32;94466.88;;;16.06;57.63
37972;BME280;23794;48.234;8.344;2023-08-08T07:23:59;94454.97;;;16.26;57.21
37972;BME280;23794;48.234;8.344;2023-08-08T07:26:26;94464.28;;;15.99;55.52
37972;BME280;23794;48.234;8.344;2023-08-08T07:28:52;94464.84;;;15.90;55.05
37972;BME280;23794;48.234;8.344;2023-08-08T07:31:19;94468.56;;;15.84;55.01
37972;BME280;23794;48.234;8.344;2023-08-08T07:33:46;94465.25;;;15.72;56.25
37972;BME280;23794;48.234;8.344;2023-08-08T07:36:12;94465.25;;;15.72;55.90
37972;BME280;23794;48.234;8.344;2023-08-08T07:38:39;94468.78;;;15.73;57.03
37972;BME280;23794;48.234;8.344;2023-08-08T07:41:06;94475.00;;;15.77;56.45
37972;BME280;23794;48.234;8.344;2023-08-08T07:43:32;94474.91;;;16.01;56.89
37972;BME280;23794;48.234;8.344;2023-08-08T07:46:00;94467.41;;;16.01;55.96
37972;BME280;23794;48.234;8.344;2023-08-08T07:48:26;94464.50;;;16.25;55.96
37972;BME280;23794;48.234;8.344;2023-08-08T07:50:53;94459.72;;;16.58;55.00
37972;BME280;23794;48.234;8.344;2023-08-08T07:53:20;94463.94;;;16.63;52.15
37972;BME280;23794;48.234;8.344;2023-08-08T07:55:46;94469.00;;;16.81;52.72
37972;BME280;23794;48.234;8.344;2023-08-08T07:58:13;94462.69;;;16.97;52.27
37972;BME280;23794;48.234;8.344;2023-08-08T08:00:40;94464.13;;;16.39;52.27
37972;BME280;23794;48.234;8.344;2023-08-08T08:03:07;94457.91;;;16.52;54.34
37972;BME280;23794;48.234;8.344;2023-08-08T08:05:34;94462.97;;;16.70;53.22
37972;BME280;23794;48.234;8.344;2023-08-08T08:08:01;94464.44;;;16.74;53.79
37972;BME280;23794;48.234;8.344;2023-08-08T08:10:28;94458.88;;;16.91;53.86
37972;BME280;23794;48.234;8.344;2023-08-08T08:12:55;94459.97;;;16.94;52.62
37972;BME280;23794;48.234;8.344;2023-08-08T08:15:25;94450.06;;;16.96;52.80
37972;BME280;23794;48.234;8.344;2023-08-08T08:17:52;94453.09;;;16.85;53.63
37972;BME280;23794;48.234;8.344;2023-08-08T08:20:19;94446.31;;;16.57;52.35
37972;BME280;23794;48.234;8.344;2023-08-08T08:22:46;94455.50;;;16.37;51.88
37972;BME280;23794;48.234;8.344;2023-08-08T08:25:14;94447.19;;;16.37;52.87
37972;BME280;23794;48.234;8.344;2023-08-08T08:27:40;94454.09;;;16.62;52.05
37972;BME280;23794;48.234;8.344;2023-08-08T08:30:08;94450.16;;;16.76;51.20
37972;BME280;23794;48.234;8.344;2023-08-08T08:32:38;94447.97;;;17.00;51.44
37972;BME280;23794;48.234;8.344;2023-08-08T08:35:06;94456.28;;;17.00;49.12
37972;BME280;23794;48.234;8.344;2023-08-08T08:37:34;94450.91;;;16.93;50.60
37972;BME280;23794;48.234;8.344;2023-08-08T08:40:01;94446.50;;;17.25;52.15
37972;BME280;23794;48.234;8.344;2023-08-08T08:42:32;94445.94;;;17.17;48.45
37972;BME280;23794;48.234;8.344;2023-08-08T08:45:01;94457.97;;;16.94;49.35
37972;BME280;23794;48.234;8.344;2023-08-08T08:47:29;94459.41;;;16.86;51.05
37972;BME280;23794;48.234;8.344;2023-08-08T08:49:58;94452.38;;;16.98;51.96
37972;BME280;23794;48.234;8.344;2023-08-08T08:52:27;94458.59;;;17.02;49.43
37972;BME280;23794;48.234;8.344;2023-08-08T08:54:54;94457.19;;;17.10;49.98
37972;BME280;23794;48.234;8.344;2023-08-08T08:57:22;94461.47;;;17.28;50.32
37972;BME280;23794;48.234;8.344;2023-08-08T08:59:50;94446.09;;;17.52;49.10
37972;BME280;23794;48.234;8.344;2023-08-08T09:02:18;94453.28;;;17.37;50.10
37972;BME280;23794;48.234;8.344;2023-08-08T09:04:45;94451.97;;;17.42;48.41
37972;BME280;23794;48.234;8.344;2023-08-08T09:07:16;94456.38;;;17.39;49.88
37972;BME280;23794;48.234;8.344;2023-08-08T09:09:45;94455.00;;;17.60;50.52
37972;BME280;23794;48.234;8.344;2023-08-08T09:12:12;94458.09;;;17.75;48.68
37972;BME280;23794;48.234;8.344;2023-08-08T09:14:40;94448.84;;;17.95;48.92
37972;BME280;23794;48.234;8.344;2023-08-08T09:17:14;94450.19;;;18.03;49.45
37972;BME280;23794;48.234;8.344;2023-08-08T09:19:44;94444.06;;;18.21;47.37
37972;BME280;23794;48.234;8.344;2023-08-08T09:22:13;94449.06;;;18.13;47.55
37972;BME280;23794;48.234;8.344;2023-08-08T09:24:41;94453.50;;;17.98;48.30
37972;BME280;23794;48.234;8.344;2023-08-08T09:27:09;94446.16;;;18.17;49.57
37972;BME280;23794;48.234;8.344;2023-08-08T09:29:37;94442.94;;;18.31;48.48
37972;BME280;23794;48.234;8.344;2023-08-08T09:32:05;94443.97;;;18.25;48.50
37972;BME280;23794;48.234;8.344;2023-08-08T09:34:32;94440.50;;;18.08;48.60
37972;BME280;23794;48.234;8.344;2023-08-08T09:36:59;94438.59;;;18.30;48.82
37972;BME280;23794;48.234;8.344;2023-08-08T09:39:27;94434.97;;;18.08;47.96
37972;BME280;23794;48.234;8.344;2023-08-08T09:41:56;94432.19;;;18.34;47.84
37972;BME280;23794;48.234;8.344;2023-08-08T09:44:26;94424.25;;;18.45;48.56
37972;BME280;23794;48.234;8.344;2023-08-08T09:46:55;94439.00;;;18.07;48.54
37972;BME280;23794;48.234;8.344;2023-08-08T09:49:22;94420.44;;;18.29;48.32
37972;BME280;23794;48.234;8.344;2023-08-08T09:51:49;94419.50;;;18.45;47.29
37972;BME280;23794;48.234;8.344;2023-08-08T09:54:17;94428.19;;;18.70;46.44
37972;BME280;23794;48.234;8.344;2023-08-08T09:56:44;94418.09;;;19.11;45.39
37972;BME280;23794;48.234;8.344;2023-08-08T09:59:11;94423.81;;;18.94;45.43
37972;BME280;23794;48.234;8.344;2023-08-08T10:01:40;94418.91;;;18.99;45.10
37972;BME280;23794;48.234;8.344;2023-08-08T10:04:08;94419.28;;;18.88;45.35
37972;BME280;23794;48.234;8.344;2023-08-08T10:06:34;94420.59;;;18.96;45.73
37972;BME280;23794;48.234;8.344;2023-08-08T10:09:01;94414.91;;;19.22;45.88
37972;BME280;23794;48.234;8.344;2023-08-08T10:11:30;94404.44;;;19.48;45.78
37972;BME280;23794;48.234;8.344;2023-08-08T10:13:58;94406.66;;;19.63;44.17
37972;BME280;23794;48.234;8.344;2023-08-08T10:16:27;94405.47;;;19.41;43.03
37972;BME280;23794;48.234;8.344;2023-08-08T10:18:56;94407.81;;;19.43;43.02
37972;BME280;23794;48.234;8.344;2023-08-08T10:21:24;94403.63;;;19.38;44.20
37972;BME280;23794;48.234;8.344;2023-08-08T10:24:02;94409.56;;;19.59;43.37
37972;BME280;23794;48.234;8.344;2023-08-08T10:26:30;94404.38;;;20.02;44.79
37972;BME280;23794;48.234;8.344;2023-08-08T10:28:59;94408.78;;;20.31;43.41
37972;BME280;23794;48.234;8.344;2023-08-08T10:31:26;94400.94;;;20.48;42.78
37972;BME280;23794;48.234;8.344;2023-08-08T10:34:03;94406.56;;;20.66;42.52
37972;BME280;23794;48.234;8.344;2023-08-08T10:36:50;94396.50;;;20.97;42.71
37972;BME280;23794;48.234;8.344;2023-08-08T10:39:19;94395.28;;;21.07;41.87
37972;BME280;23794;48.234;8.344;2023-08-08T10:41:49;94406.41;;;21.16;40.35
37972;BME280;23794;48.234;8.344;2023-08-08T10:44:23;94404.22;;;21.02;39.13
37972;BME280;23794;48.234;8.344;2023-08-08T10:46:51;94397.13;;;21.01;41.02
37972;BME280;23794;48.234;8.344;2023-08-08T10:49:19;94403.31;;;20.96;41.45
37972;BME280;23794;48.234;8.344;2023-08-08T10:51:48;94407.16;;;20.98;39.14
37972;BME280;23794;48.234;8.344;2023-08-08T10:54:22;94392.13;;;21.42;42.19
37972;BME280;23794;48.234;8.344;2023-08-08T10:56:51;94390.22;;;21.67;39.79
37972;BME280;23794;48.234;8.344;2023-08-08T10:59:44;94391.78;;;21.68;39.74
37972;BME280;23794;48.234;8.344;2023-08-08T11:02:09;94391.69;;;21.25;39.51
37972;BME280;23794;48.234;8.344;2023-08-08T11:04:37;94393.75;;;21.68;40.27
37972;BME280;23794;48.234;8.344;2023-08-08T11:07:03;94401.44;;;21.11;40.12
37972;BME280;23794;48.234;8.344;2023-08-08T11:09:30;94398.13;;;20.38;40.50
37972;BME280;23794;48.234;8.344;2023-08-08T11:11:57;94411.78;;;19.96;41.96
37972;BME280;23794;48.234;8.344;2023-08-08T11:14:24;94416.94;;;19.75;43.09
37972;BME280;23794;48.234;8.344;2023-08-08T11:16:51;94418.19;;;19.83;44.12
37972;BME280;23794;48.234;8.344;2023-08-08T11:19:19;94403.78;;;20.07;44.01
37972;BME280;23794;48.234;8.344;2023-08-08T11:21:46;94404.44;;;20.20;42.29
37972;BME280;23794;48.234;8.344;2023-08-08T11:24:13;94407.19;;;20.11;42.95
37972;BME280;23794;48.234;8.344;2023-08-08T11:26:41;94400.06;;;20.69;42.49
37972;BME280;23794;48.234;8.344;2023-08-08T11:29:08;94399.00;;;20.76;41.24
37972;BME280;23794;48.234;8.344;2023-08-08T11:31:35;94399.91;;;20.64;41.52
37972;BME280;23794;48.234;8.344;2023-08-08T11:34:03;94395.25;;;21.16;41.70
37972;BME280;23794;48.234;8.344;2023-08-08T11:36:34;94392.75;;;21.19;41.24
37972;BME280;23794;48.234;8.344;2023-08-08T11:39:02;94389.38;;;20.87;42.11
37972;BME280;23794;48.234;8.344;2023-08-08T11:41:35;94400.06;;;20.79;41.27
37972;BME280;23794;48.234;8.344;2023-08-08T11:44:03;94400.84;;;21.07;40.44
37972;BME280;23794;48.234;8.344;2023-08-08T11:46:30;94387.38;;;21.06;40.31
37972;BME280;23794;48.234;8.344;2023-08-08T11:49:04;94380.38;;;20.45;39.85
37972;BME280;23794;48.234;8.344;2023-08-08T11:51:34;94393.97;;;19.84;40.66
37972;BME280;23794;48.234;8.344;2023-08-08T11:54:02;94390.78;;;19.95;42.94
37972;BME280;23794;48.234;8.344;2023-08-08T11:56:32;94382.69;;;20.47;42.91
37972;BME280;23794;48.234;8.344;2023-08-08T11:59:00;94383.78;;;21.33;40.21
37972;BME280;23794;48.234;8.344;2023-08-08T12:01:26;94383.91;;;21.57;39.72
37972;BME280;23794;48.234;8.344;2023-08-08T12:03:53;94379.25;;;21.63;38.78
37972;BME280;23794;48.234;8.344;2023-08-08T12:06:28;94379.97;;;21.73;38.91
37972;BME280;23794;48.234;8.344;2023-08-08T12:08:55;94372.09;;;22.05;38.39
37972;BME280;23794;48.234;8.344;2023-08-08T12:11:22;94378.59;;;21.69;39.35
37972;BME280;23794;48.234;8.344;2023-08-08T12:13:58;94387.03;;;21.41;39.96
37972;BME280;23794;48.234;8.344;2023-08-08T12:16:28;94375.56;;;21.48;39.45
37972;BME280;23794;48.234;8.344;2023-08-08T12:19:06;94383.38;;;20.97;39.83
37972;BME280;23794;48.234;8.344;2023-08-08T12:21:33;94370.22;;;20.98;40.32
37972;BME280;23794;48.234;8.344;2023-08-08T12:24:01;94382.53;;;20.50;40.23
37972;BME280;23794;48.234;8.344;2023-08-08T12:26:28;94396.91;;;19.80;41.23
37972;BME280;23794;48.234;8.344;2023-08-08T12:28:55;94391.75;;;19.47;43.22
37972;BME280;23794;48.234;8.344;2023-08-08T12:31:21;94397.94;;;19.20;43.13
37972;BME280;23794;48.234;8.344;2023-08-08T12:33:48;94400.09;;;18.80;44.73
37972;BME280;23794;48.234;8.344;2023-08-08T12:36:15;94396.19;;;18.56;45.27
37972;BME280;23794;48.234;8.344;2023-08-08T12:38:42;94399.00;;;18.43;46.04
37972;BME280;23794;48.234;8.344;2023-08-08T12:41:09;94397.13;;;18.27;48.14
37972;BME280;23794;48.234;8.344;2023-08-08T12:43:37;94396.94;;;18.21;47.23
37972;BME280;23794;48.234;8.344;2023-08-08T12:46:04;94399.63;;;18.12;48.07
37972;BME280;23794;48.234;8.344;2023-08-08T12:48:31;94411.28;;;18.07;48.62
37972;BME280;23794;48.234;8.344;2023-08-08T12:50:57;94410.22;;;18.26;47.51
37972;BME280;23794;48.234;8.344;2023-08-08T12:53:24;94403.31;;;18.79;47.18
37972;BME280;23794;48.234;8.344;2023-08-08T12:55:51;94408.25;;;19.41;46.12
37972;BME280;23794;48.234;8.344;2023-08-08T12:58:18;94411.47;;;19.94;45.16
37972;BME280;23794;48.234;8.344;2023-08-08T13:00:45;94392.09;;;20.31;43.73
37972;BME280;23794;48.234;8.344;2023-08-08T13:03:12;94394.22;;;20.08;43.63
37972;BME280;23794;48.234;8.344;2023-08-08T13:05:39;94387.59;;;20.24;43.48
37972;BME280;23794;48.234;8.344;2023-08-08T13:08:06;94377.88;;;20.29;43.14
37972;BME280;23794;48.234;8.344;2023-08-08T13:10:33;94372.84;;;21.11;44.02
37972;BME280;23794;48.234;8.344;2023-08-08T13:12:59;94367.97;;;21.91;41.24